Frederikshaab, Greenland
Current Conditions -  °F | °C
As of 5:50 PM on Monday 24 Nov 2014 (Local Time) from BGGH Reporting Station
Snow Showers Snow Showers  
Wind Chill: 13°   Ceiling: 2100
Heat Index: 25°   Visibility: 5mi
Dew Point: 16°   Wind: 13mph
Humidity: 69%   Direction: 240°WSW
Pressure: 29.38"   Gusts: NA
Location:  61.99°N, 49.66°W
Report Text: BGGH 241950Z 24011KT 200V260 8000 -SHSN SCT016 BKN021 OVC026 M04/M09 Q0995
Loading
Personal Weather Stations






























Interactive Weather Map New forecast layout! Learn more

10-Day Weather Forecast

Advertisements
Track Severe Weather on mobile